Time;durP1;ratioP1;P1;durP2;ratioP2;P2;SDS_P1;SDS_P2;PMS_P1;PMS_P2;Temp;Humidity;BMP_temperature;BMP_pressure;BME280_temperature;BME280_humidity;BME280_pressure;Samples;Min_cycle;Max_cycle;Signal;HPM_P1;HPM_P2
2024/03/16 04:38:51;;;;;;;1999.90;999.90;;;;;;;;;;5573385;23;20258;-69
2024/03/16 04:41:36;;;;;;;1999.90;999.90;;;;;;;;;;5010219;28;20719;-69
2024/03/16 04:44:22;;;;;;;1999.90;999.90;;;;;;;;;;5009467;28;20211;-69
2024/03/16 04:47:07;;;;;;;1999.90;999.90;;;;;;;;;;5009482;28;20235;-69
2024/03/16 04:49:52;;;;;;;1999.90;999.90;;;;;;;;;;4991469;28;20214;-69
2024/03/16 04:52:37;;;;;;;1999.90;999.90;;;;;;;;;;4988945;28;20211;-70
2024/03/16 04:55:22;;;;;;;1999.90;999.90;;;;;;;;;;4987683;28;20220;-69
2024/03/16 04:58:07;;;;;;;1999.90;999.90;;;;;;;;;;4988944;28;20252;-69
2024/03/16 05:00:53;;;;;;;1999.90;999.90;;;;;;;;;;4987542;28;20566;-69
2024/03/16 05:03:38;;;;;;;1999.90;999.90;;;;;;;;;;4987569;28;20203;-69
2024/03/16 05:06:23;;;;;;;1999.90;999.90;;;;;;;;;;4985404;28;20271;-69
2024/03/16 05:09:09;;;;;;;1999.90;999.90;;;;;;;;;;4981140;28;20287;-69
2024/03/16 05:11:54;;;;;;;1999.90;999.90;;;;;;;;;;4985020;28;20203;-69
2024/03/16 05:14:40;;;;;;;1999.90;999.90;;;;;;;;;;4986367;28;20212;-68
2024/03/16 05:17:25;;;;;;;1999.90;999.90;;;;;;;;;;4985972;28;20208;-69
2024/03/16 05:20:11;;;;;;;1999.90;999.90;;;;;;;;;;4986086;28;20204;-69
2024/03/16 05:22:57;;;;;;;1999.90;999.90;;;;;;;;;;4984808;28;20220;-70
2024/03/16 05:25:46;;;;;;;1999.90;999.90;;;;;;;;;;4984484;28;20225;-69
2024/03/16 05:28:31;;;;;;;1999.90;999.90;;;;;;;;;;4984531;28;20236;-69
2024/03/16 05:31:17;;;;;;;1999.90;999.90;;;;;;;;;;4984130;28;20271;-70
2024/03/16 05:34:02;;;;;;;1999.90;999.90;;;;;;;;;;4984805;28;20208;-69
2024/03/16 05:36:47;;;;;;;1999.90;999.90;;;;;;;;;;4985255;28;20234;-69
2024/03/16 05:39:32;;;;;;;1999.90;999.90;;;;;;;;;;4983428;28;20612;-69
2024/03/16 05:42:17;;;;;;;1999.90;999.90;;;;;;;;;;4986458;28;20211;-69
2024/03/16 05:45:03;;;;;;;1999.90;999.90;;;;;;;;;;4988591;28;20256;-68
2024/03/16 05:47:48;;;;;;;1999.90;999.90;;;;;;;;;;4989276;28;20231;-69
2024/03/16 05:50:33;;;;;;;1999.90;999.90;;;;;;;;;;4988645;28;20255;-69
2024/03/16 05:53:19;;;;;;;1999.90;999.90;;;;;;;;;;4989273;28;20231;-70
2024/03/16 05:56:03;;;;;;;1999.90;999.90;;;;;;;;;;4994818;28;20256;-69
2024/03/16 05:58:49;;;;;;;1999.90;999.90;;;;;;;;;;4997541;28;20391;-70
2024/03/16 06:01:33;;;;;;;1999.90;999.90;;;;;;;;;;4998667;28;20209;-68
2024/03/16 06:04:19;;;;;;;1999.90;999.90;;;;;;;;;;4997433;28;20180;-70
2024/03/16 06:07:05;;;;;;;1999.90;999.90;;;;;;;;;;4998603;28;20212;-69
2024/03/16 06:09:50;;;;;;;1999.90;999.90;;;;;;;;;;4999122;28;20224;-70
2024/03/16 06:12:35;;;;;;;1999.90;999.90;;;;;;;;;;4999052;28;20211;-69
2024/03/16 06:15:20;;;;;;;1999.90;999.90;;;;;;;;;;4996410;28;20283;-68
2024/03/16 06:18:05;;;;;;;1999.90;999.90;;;;;;;;;;4997516;28;20303;-69
2024/03/16 06:20:50;;;;;;;1999.90;999.90;;;;;;;;;;4998898;28;20196;-69
2024/03/16 06:23:35;;;;;;;1999.90;999.90;;;;;;;;;;4998705;28;20212;-69
2024/03/16 06:26:22;;;;;;;1999.90;999.90;;;;;;;;;;4998612;28;20340;-68
2024/03/16 06:29:08;;;;;;;1999.90;999.90;;;;;;;;;;4998707;28;20267;-69
2024/03/16 06:32:04;;;;;;;1999.90;999.90;;;;;;;;;;4998810;28;20187;-69
2024/03/16 06:34:50;;;;;;;1999.90;999.90;;;;;;;;;;4997169;28;20443;-69
2024/03/16 06:37:36;;;;;;;1999.90;999.90;;;;;;;;;;4998254;28;20207;-68
2024/03/16 06:40:21;;;;;;;1999.90;999.90;;;;;;;;;;4998125;28;20184;-70
2024/03/16 06:43:07;;;;;;;1999.90;999.90;;;;;;;;;;4998120;28;20208;-69
2024/03/16 06:45:52;;;;;;;1999.90;999.90;;;;;;;;;;4995695;28;20247;-68
2024/03/16 06:48:37;;;;;;;1999.90;999.90;;;;;;;;;;4998209;28;20211;-69
2024/03/16 06:51:22;;;;;;;1999.90;999.90;;;;;;;;;;4996856;28;20447;-68
2024/03/16 06:54:07;;;;;;;1999.90;999.90;;;;;;;;;;4994827;28;20196;-69
2024/03/16 06:56:53;;;;;;;1999.90;999.90;;;;;;;;;;4998004;28;20212;-69
2024/03/16 06:59:38;;;;;;;1999.90;999.90;;;;;;;;;;4998328;28;20215;-70
2024/03/16 07:02:23;;;;;;;1999.90;999.90;;;;;;;;;;4998066;28;20238;-70
2024/03/16 07:05:09;;;;;;;1999.90;999.90;;;;;;;;;;4998199;28;20256;-70
2024/03/16 07:07:54;;;;;;;1999.90;999.90;;;;;;;;;;4998001;28;20255;-68
2024/03/16 07:10:40;;;;;;;1999.90;999.90;;;;;;;;;;4997403;28;20227;-70
2024/03/16 07:13:25;;;;;;;1999.90;999.90;;;;;;;;;;4997706;28;20191;-70
2024/03/16 07:16:11;;;;;;;1999.90;999.90;;;;;;;;;;4998180;28;20188;-69
2024/03/16 07:18:57;;;;;;;1999.90;999.90;;;;;;;;;;5000343;28;20215;-70
2024/03/16 07:21:42;;;;;;;1999.90;999.90;;;;;;;;;;5002170;28;20187;-68
2024/03/16 07:24:28;;;;;;;1999.90;999.90;;;;;;;;;;5001867;28;20249;-69
2024/03/16 07:27:13;;;;;;;1999.90;999.90;;;;;;;;;;5001859;28;20244;-68
2024/03/16 07:29:58;;;;;;;1999.90;999.90;;;;;;;;;;5002032;28;20190;-69
2024/03/16 07:32:45;;;;;;;1999.90;999.90;;;;;;;;;;5001764;28;20199;-69
2024/03/16 07:35:31;;;;;;;1999.90;999.90;;;;;;;;;;5001909;28;20214;-69
2024/03/16 07:38:16;;;;;;;1999.90;999.90;;;;;;;;;;4986444;28;20301;-68
2024/03/16 07:41:01;;;;;;;1999.90;999.90;;;;;;;;;;4982084;28;20221;-69
2024/03/16 07:43:46;;;;;;;1999.90;999.90;;;;;;;;;;4986789;28;20446;-68
2024/03/16 07:46:31;;;;;;;1999.90;999.90;;;;;;;;;;4992928;28;20293;-71
2024/03/16 07:49:16;;;;;;;1999.90;999.90;;;;;;;;;;4975658;28;20743;-70
2024/03/16 07:52:02;;;;;;;1999.90;999.90;;;;;;;;;;4976281;28;20215;-70
2024/03/16 07:54:47;;;;;;;1999.90;999.90;;;;;;;;;;4975494;28;20212;-72
2024/03/16 07:57:32;;;;;;;1999.90;999.90;;;;;;;;;;4973153;28;20672;-70
2024/03/16 08:00:17;;;;;;;1999.90;999.90;;;;;;;;;;4973061;28;20219;-71
2024/03/16 08:03:02;;;;;;;1999.90;999.90;;;;;;;;;;4971068;28;20319;-71
2024/03/16 08:05:47;;;;;;;1999.90;999.90;;;;;;;;;;4972525;28;20247;-72
2024/03/16 08:08:33;;;;;;;1999.90;999.90;;;;;;;;;;4972810;28;20762;-70
2024/03/16 08:11:19;;;;;;;1999.90;999.90;;;;;;;;;;4972897;28;20208;-71
2024/03/16 08:14:05;;;;;;;1999.90;999.90;;;;;;;;;;4972884;28;20314;-72
2024/03/16 08:16:50;;;;;;;1999.90;999.90;;;;;;;;;;4971902;28;20410;-72
2024/03/16 08:19:38;;;;;;;1999.90;999.90;;;;;;;;;;4970974;28;20232;-72
2024/03/16 08:22:23;;;;;;;1999.90;999.90;;;;;;;;;;4972572;28;20227;-70
2024/03/16 08:25:10;;;;;;;1999.90;999.90;;;;;;;;;;4972192;28;20216;-71
2024/03/16 08:27:55;;;;;;;1999.90;999.90;;;;;;;;;;4971941;28;20227;-71
2024/03/16 08:30:39;;;;;;;1999.90;999.90;;;;;;;;;;4972008;28;20769;-70
2024/03/16 08:33:25;;;;;;;1999.90;999.90;;;;;;;;;;4971568;28;20491;-70
2024/03/16 08:36:10;;;;;;;1999.90;999.90;;;;;;;;;;4972879;28;20208;-70
2024/03/16 08:38:56;;;;;;;1999.90;999.90;;;;;;;;;;4972669;28;20239;-71
2024/03/16 08:41:41;;;;;;;1999.90;999.90;;;;;;;;;;4971427;28;20196;-70
2024/03/16 08:44:28;;;;;;;1999.90;999.90;;;;;;;;;;4971417;28;20260;-70
2024/03/16 08:47:13;;;;;;;1999.90;999.90;;;;;;;;;;4969166;28;20216;-70
2024/03/16 08:49:57;;;;;;;1999.90;999.90;;;;;;;;;;4971582;28;20216;-71
2024/03/16 08:52:43;;;;;;;1999.90;999.90;;;;;;;;;;4972344;28;20927;-70
2024/03/16 08:55:28;;;;;;;1999.90;999.90;;;;;;;;;;4971984;28;20203;-70
2024/03/16 08:58:13;;;;;;;1999.90;999.90;;;;;;;;;;4971845;28;20223;-70
2024/03/16 09:00:58;;;;;;;1999.90;999.90;;;;;;;;;;4972918;28;20687;-69
2024/03/16 09:03:44;;;;;;;1999.90;999.90;;;;;;;;;;4972389;28;20587;-69
2024/03/16 09:06:29;;;;;;;1999.90;999.90;;;;;;;;;;4969605;28;21016;-69
2024/03/16 09:09:16;;;;;;;1999.90;999.90;;;;;;;;;;4972089;28;20227;-70
2024/03/16 09:12:04;;;;;;;1999.90;999.90;;;;;;;;;;4971909;28;20215;-70
2024/03/16 09:14:49;;;;;;;1999.90;999.90;;;;;;;;;;4969189;28;20287;-70
2024/03/16 09:17:34;;;;;;;1999.90;999.90;;;;;;;;;;4970731;28;20575;-70
2024/03/16 09:20:19;;;;;;;1999.90;999.90;;;;;;;;;;4971539;28;20251;-70
2024/03/16 09:23:04;;;;;;;1999.90;999.90;;;;;;;;;;4971412;28;20224;-70
2024/03/16 09:25:54;;;;;;;1999.90;999.90;;;;;;;;;;4969937;28;20434;-70
2024/03/16 09:28:39;;;;;;;1999.90;999.90;;;;;;;;;;4972301;28;20764;-71
2024/03/16 09:31:24;;;;;;;1999.90;999.90;;;;;;;;;;4973948;28;20340;-70
2024/03/16 09:34:10;;;;;;;1999.90;999.90;;;;;;;;;;4973721;28;20216;-69
2024/03/16 09:36:56;;;;;;;1999.90;999.90;;;;;;;;;;4973242;28;20256;-70
2024/03/16 09:39:43;;;;;;;1999.90;999.90;;;;;;;;;;4973527;28;20360;-69
2024/03/16 09:42:28;;;;;;;1999.90;999.90;;;;;;;;;;4973158;28;20212;-70
2024/03/16 09:45:17;;;;;;;1999.90;999.90;;;;;;;;;;4973421;28;20813;-70
2024/03/16 09:48:03;;;;;;;1999.90;999.90;;;;;;;;;;4971832;28;20327;-70
2024/03/16 09:50:49;;;;;;;1999.90;999.90;;;;;;;;;;4973519;28;20723;-70
2024/03/16 09:53:34;;;;;;;1999.90;999.90;;;;;;;;;;4953901;29;20212;-69
2024/03/16 09:56:19;;;;;;;1999.90;999.90;;;;;;;;;;4953735;29;20208;-69
2024/03/16 09:59:05;;;;;;;1999.90;999.90;;;;;;;;;;4954091;28;20280;-70
2024/03/16 10:01:50;;;;;;;1999.90;999.90;;;;;;;;;;4969652;28;20796;-70
2024/03/16 10:04:36;;;;;;;1999.90;999.90;;;;;;;;;;4972016;28;20304;-70
2024/03/16 10:07:21;;;;;;;1999.90;999.90;;;;;;;;;;4972949;28;20303;-70
2024/03/16 10:10:10;;;;;;;1999.90;999.90;;;;;;;;;;4973176;28;20306;-70
2024/03/16 10:13:03;;;;;;;1999.90;999.90;;;;;;;;;;4972994;28;20248;-69
2024/03/16 10:15:48;;;;;;;1999.90;999.90;;;;;;;;;;4978636;28;20206;-69
2024/03/16 10:18:35;;;;;;;1999.90;999.90;;;;;;;;;;4987105;28;20868;-69
2024/03/16 10:21:20;;;;;;;1999.90;999.90;;;;;;;;;;4972890;28;20252;-69
2024/03/16 10:24:07;;;;;;;1999.90;999.90;;;;;;;;;;4972146;28;20213;-68
2024/03/16 10:26:53;;;;;;;1999.90;999.90;;;;;;;;;;4972168;28;20287;-69
2024/03/16 10:29:39;;;;;;;1999.90;999.90;;;;;;;;;;4967730;28;20332;-69
2024/03/16 10:32:24;;;;;;;1999.90;999.90;;;;;;;;;;4959431;28;20229;-69
2024/03/16 10:35:10;;;;;;;1999.90;999.90;;;;;;;;;;4971304;28;20248;-70
2024/03/16 10:37:55;;;;;;;1999.90;999.90;;;;;;;;;;4963160;28;20721;-70
2024/03/16 10:40:40;;;;;;;1999.90;999.90;;;;;;;;;;4972575;28;20206;-70
2024/03/16 10:43:25;;;;;;;1999.90;999.90;;;;;;;;;;4953213;29;20700;-70
2024/03/16 10:46:10;;;;;;;1999.90;999.90;;;;;;;;;;4953047;29;20199;-69
2024/03/16 10:48:56;;;;;;;1999.90;999.90;;;;;;;;;;4954401;28;20444;-69
2024/03/16 10:51:44;;;;;;;1999.90;999.90;;;;;;;;;;4953156;28;20216;-69
2024/03/16 10:54:29;;;;;;;1999.90;999.90;;;;;;;;;;4965718;28;20364;-69
2024/03/16 10:57:14;;;;;;;1999.90;999.90;;;;;;;;;;4972245;28;20272;-70
2024/03/16 10:59:59;;;;;;;1999.90;999.90;;;;;;;;;;4972832;28;20215;-69
2024/03/16 11:02:48;;;;;;;1999.90;999.90;;;;;;;;;;4972551;28;20606;-68
2024/03/16 11:05:35;;;;;;;1999.90;999.90;;;;;;;;;;4967673;28;20212;-69
2024/03/16 11:08:23;;;;;;;1999.90;999.90;;;;;;;;;;4955717;28;20506;-69
2024/03/16 11:11:08;;;;;;;1999.90;999.90;;;;;;;;;;4971758;28;20211;-68
2024/03/16 11:14:05;;;;;;;1999.90;999.90;;;;;;;;;;4971040;28;20211;-69
2024/03/16 11:16:51;;;;;;;1999.90;999.90;;;;;;;;;;4971983;28;20232;-69
2024/03/16 11:19:36;;;;;;;1999.90;999.90;;;;;;;;;;4971165;28;20252;-70
2024/03/16 11:22:21;;;;;;;1999.90;999.90;;;;;;;;;;4971736;28;20211;-69
2024/03/16 11:25:10;;;;;;;1999.90;999.90;;;;;;;;;;4989207;28;20215;-69
2024/03/16 11:27:55;;;;;;;1999.90;999.90;;;;;;;;;;4978755;28;20644;-69
2024/03/16 11:30:40;;;;;;;1999.90;999.90;;;;;;;;;;4971276;28;20595;-68
2024/03/16 11:33:25;;;;;;;1999.90;999.90;;;;;;;;;;4971002;28;20584;-69
2024/03/16 11:36:09;;;;;;;1999.90;999.90;;;;;;;;;;4971842;28;20212;-69
2024/03/16 11:38:54;;;;;;;1999.90;999.90;;;;;;;;;;4971078;28;20231;-69
2024/03/16 11:41:42;;;;;;;1999.90;999.90;;;;;;;;;;4971528;28;20620;-68
2024/03/16 11:44:28;;;;;;;1999.90;999.90;;;;;;;;;;4971148;28;20236;-69
2024/03/16 11:47:12;;;;;;;1999.90;999.90;;;;;;;;;;4971930;28;20256;-69
2024/03/16 11:49:57;;;;;;;1999.90;999.90;;;;;;;;;;4971447;28;20211;-69
2024/03/16 11:52:41;;;;;;;1999.90;999.90;;;;;;;;;;4970083;28;20538;-69
2024/03/16 11:55:29;;;;;;;1999.90;999.90;;;;;;;;;;4964085;28;20221;-69
2024/03/16 11:58:14;;;;;;;1999.90;999.90;;;;;;;;;;4971569;28;20242;-69
2024/03/16 12:01:00;;;;;;;1999.90;999.90;;;;;;;;;;4970540;28;20452;-69
2024/03/16 12:03:46;;;;;;;1999.90;999.90;;;;;;;;;;4969849;28;20246;-69
2024/03/16 12:06:31;;;;;;;1999.90;999.90;;;;;;;;;;4974829;28;20297;-69
2024/03/16 12:09:18;;;;;;;1999.90;999.90;;;;;;;;;;4973424;28;20574;-69
2024/03/16 12:12:02;;;;;;;1999.90;999.90;;;;;;;;;;4974966;28;20207;-69
2024/03/16 12:14:47;;;;;;;1999.90;999.90;;;;;;;;;;4974782;28;20689;-69
2024/03/16 12:17:30;;;;;;;1999.90;999.90;;;;;;;;;;4974125;28;20298;-68
2024/03/16 12:20:16;;;;;;;1999.90;999.90;;;;;;;;;;4974320;28;20210;-70
2024/03/16 12:23:00;;;;;;;1999.90;999.90;;;;;;;;;;4972019;28;20326;-69
2024/03/16 12:25:45;;;;;;;1999.90;999.90;;;;;;;;;;4973477;28;21003;-70
2024/03/16 12:28:29;;;;;;;1999.90;999.90;;;;;;;;;;4974352;28;20246;-69
2024/03/16 12:31:14;;;;;;;1999.90;999.90;;;;;;;;;;4974118;28;20674;-69
2024/03/16 12:33:59;;;;;;;1999.90;999.90;;;;;;;;;;4972896;28;20210;-68
2024/03/16 12:36:43;;;;;;;1999.90;999.90;;;;;;;;;;4974298;28;20214;-69
2024/03/16 12:39:32;;;;;;;1999.90;999.90;;;;;;;;;;4973919;28;20257;-69
2024/03/16 12:42:17;;;;;;;1999.90;999.90;;;;;;;;;;4972958;28;20418;-68
2024/03/16 12:45:01;;;;;;;1999.90;999.90;;;;;;;;;;4973881;28;20215;-70
2024/03/16 12:47:47;;;;;;;1999.90;999.90;;;;;;;;;;4973740;28;20319;-69
2024/03/16 12:50:31;;;;;;;1999.90;999.90;;;;;;;;;;4955205;29;20291;-69
2024/03/16 12:53:16;;;;;;;1999.90;999.90;;;;;;;;;;4954973;29;20207;-69
2024/03/16 12:56:03;;;;;;;1999.90;999.90;;;;;;;;;;4955238;29;20211;-69
2024/03/16 12:58:49;;;;;;;1999.90;999.90;;;;;;;;;;4954642;28;20690;-69
2024/03/16 13:01:33;;;;;;;1999.90;999.90;;;;;;;;;;4954783;29;20213;-69
2024/03/16 13:04:18;;;;;;;1999.90;999.90;;;;;;;;;;4954617;28;20632;-69
2024/03/16 13:07:04;;;;;;;1999.90;999.90;;;;;;;;;;4954770;29;20211;-69
2024/03/16 13:09:50;;;;;;;1999.90;999.90;;;;;;;;;;4954210;28;20270;-69
2024/03/16 13:12:35;;;;;;;1999.90;999.90;;;;;;;;;;4954377;29;20199;-69
2024/03/16 13:15:20;;;;;;;1999.90;999.90;;;;;;;;;;4953876;28;20343;-69
2024/03/16 13:18:05;;;;;;;1999.90;999.90;;;;;;;;;;4953271;28;20405;-68
2024/03/16 13:20:49;;;;;;;1999.90;999.90;;;;;;;;;;4954528;29;20211;-70
2024/03/16 13:23:34;;;;;;;1999.90;999.90;;;;;;;;;;4954277;29;20235;-69
2024/03/16 13:26:18;;;;;;;1999.90;999.90;;;;;;;;;;4954436;29;20220;-69
2024/03/16 13:29:04;;;;;;;1999.90;999.90;;;;;;;;;;4954015;28;20242;-69
2024/03/16 13:31:48;;;;;;;1999.90;999.90;;;;;;;;;;4954054;29;20587;-68
2024/03/16 13:34:34;;;;;;;1999.90;999.90;;;;;;;;;;4953539;29;20423;-69
2024/03/16 13:37:20;;;;;;;1999.90;999.90;;;;;;;;;;4954177;29;20589;-67
2024/03/16 13:40:05;;;;;;;1999.90;999.90;;;;;;;;;;4954550;29;20623;-68
2024/03/16 13:42:49;;;;;;;1999.90;999.90;;;;;;;;;;4953995;29;20207;-68
2024/03/16 13:45:35;;;;;;;1999.90;999.90;;;;;;;;;;4954091;29;20260;-69
2024/03/16 13:48:20;;;;;;;1999.90;999.90;;;;;;;;;;4953711;28;20242;-69
2024/03/16 13:51:04;;;;;;;1999.90;999.90;;;;;;;;;;4954111;29;20212;-69
2024/03/16 13:53:51;;;;;;;1999.90;999.90;;;;;;;;;;4953685;29;20218;-69
2024/03/16 13:56:36;;;;;;;1999.90;999.90;;;;;;;;;;4956031;28;20212;-69
2024/03/16 13:59:20;;;;;;;1999.90;999.90;;;;;;;;;;4953723;28;20367;-69
2024/03/16 14:02:06;;;;;;;1999.90;999.90;;;;;;;;;;4953629;29;20215;-69
2024/03/16 14:04:50;;;;;;;1999.90;999.90;;;;;;;;;;4953484;29;20743;-70
2024/03/16 14:07:35;;;;;;;1999.90;999.90;;;;;;;;;;4953257;28;20639;-70
2024/03/16 14:10:19;;;;;;;1999.90;999.90;;;;;;;;;;4952500;29;20536;-68
2024/03/16 14:13:04;;;;;;;1999.90;999.90;;;;;;;;;;4953422;29;20696;-69
2024/03/16 14:15:49;;;;;;;1999.90;999.90;;;;;;;;;;4953581;29;20212;-69
2024/03/16 14:18:35;;;;;;;1999.90;999.90;;;;;;;;;;4953408;28;20303;-70
2024/03/16 14:21:19;;;;;;;1999.90;999.90;;;;;;;;;;4953446;29;20220;-69
2024/03/16 14:24:04;;;;;;;1999.90;999.90;;;;;;;;;;4953154;29;20210;-70
2024/03/16 14:26:48;;;;;;;1999.90;999.90;;;;;;;;;;4952025;28;20478;-69
2024/03/16 14:29:34;;;;;;;1999.90;999.90;;;;;;;;;;4952841;28;20564;-70
2024/03/16 14:32:18;;;;;;;1999.90;999.90;;;;;;;;;;4953576;29;20344;-69
2024/03/16 14:35:03;;;;;;;1999.90;999.90;;;;;;;;;;4953273;29;20422;-69
2024/03/16 14:37:47;;;;;;;1999.90;999.90;;;;;;;;;;4952742;28;20209;-68
2024/03/16 14:40:32;;;;;;;1999.90;999.90;;;;;;;;;;4953193;29;20709;-69
2024/03/16 14:43:18;;;;;;;1999.90;999.90;;;;;;;;;;4953235;29;20624;-70
2024/03/16 14:46:03;;;;;;;1999.90;999.90;;;;;;;;;;4953211;29;20211;-70
2024/03/16 14:48:47;;;;;;;1999.90;999.90;;;;;;;;;;4953056;28;20238;-69
2024/03/16 14:51:32;;;;;;;1999.90;999.90;;;;;;;;;;4953223;29;20268;-70
2024/03/16 14:54:16;;;;;;;1999.90;999.90;;;;;;;;;;4953177;29;20732;-71
2024/03/16 14:57:01;;;;;;;1999.90;999.90;;;;;;;;;;4953186;29;20214;-70
2024/03/16 14:59:46;;;;;;;1999.90;999.90;;;;;;;;;;4953148;28;20729;-70
2024/03/16 15:02:31;;;;;;;1999.90;999.90;;;;;;;;;;4952135;29;20420;-70
2024/03/16 15:05:18;;;;;;;1999.90;999.90;;;;;;;;;;4953274;29;20211;-69
2024/03/16 15:08:03;;;;;;;1999.90;999.90;;;;;;;;;;4953239;28;20308;-70
2024/03/16 15:10:47;;;;;;;1999.90;999.90;;;;;;;;;;4953346;29;20285;-69
2024/03/16 15:13:32;;;;;;;1999.90;999.90;;;;;;;;;;4953091;29;20262;-70
2024/03/16 15:16:17;;;;;;;1999.90;999.90;;;;;;;;;;4953103;29;20257;-70
2024/03/16 15:19:01;;;;;;;1999.90;999.90;;;;;;;;;;4952023;28;20403;-70
2024/03/16 15:21:48;;;;;;;1999.90;999.90;;;;;;;;;;4952994;29;20708;-68
2024/03/16 15:24:33;;;;;;;1999.90;999.90;;;;;;;;;;4952499;29;20616;-69
2024/03/16 15:27:28;;;;;;;1999.90;999.90;;;;;;;;;;4952731;29;20204;-70
2024/03/16 15:30:12;;;;;;;1999.90;999.90;;;;;;;;;;4952592;29;20620;-70
2024/03/16 15:32:57;;;;;;;1999.90;999.90;;;;;;;;;;4952601;29;20266;-69
2024/03/16 15:35:41;;;;;;;1999.90;999.90;;;;;;;;;;4952828;29;20214;-70
2024/03/16 15:38:26;;;;;;;1999.90;999.90;;;;;;;;;;4952967;28;20236;-70
2024/03/16 15:41:11;;;;;;;1999.90;999.90;;;;;;;;;;4956522;29;20219;-70
2024/03/16 15:43:56;;;;;;;1999.90;999.90;;;;;;;;;;4956149;29;20223;-69
2024/03/16 15:46:42;;;;;;;1999.90;999.90;;;;;;;;;;4956690;28;20345;-70
2024/03/16 15:49:26;;;;;;;1999.90;999.90;;;;;;;;;;4956362;28;20240;-70
2024/03/16 15:52:11;;;;;;;1999.90;999.90;;;;;;;;;;4956671;28;20256;-70
2024/03/16 15:54:56;;;;;;;1999.90;999.90;;;;;;;;;;4956218;29;20209;-69
2024/03/16 15:57:40;;;;;;;1999.90;999.90;;;;;;;;;;4956044;28;20206;-69
2024/03/16 16:00:26;;;;;;;1999.90;999.90;;;;;;;;;;4956463;29;20249;-69
2024/03/16 16:03:10;;;;;;;1999.90;999.90;;;;;;;;;;4955993;29;20208;-69
2024/03/16 16:05:55;;;;;;;1999.90;999.90;;;;;;;;;;4955952;29;20264;-69
2024/03/16 16:08:39;;;;;;;1999.90;999.90;;;;;;;;;;4956168;28;20605;-70
2024/03/16 16:11:24;;;;;;;1999.90;999.90;;;;;;;;;;4954593;29;20748;-69
2024/03/16 16:14:08;;;;;;;1999.90;999.90;;;;;;;;;;4955952;29;20346;-69
2024/03/16 16:16:53;;;;;;;1999.90;999.90;;;;;;;;;;4955970;29;20294;-69
2024/03/16 16:19:40;;;;;;;1999.90;999.90;;;;;;;;;;4955886;28;20298;-69
2024/03/16 16:22:25;;;;;;;1999.90;999.90;;;;;;;;;;4955905;29;20206;-70
2024/03/16 16:25:09;;;;;;;1999.90;999.90;;;;;;;;;;4955700;29;20260;-70
2024/03/16 16:27:55;;;;;;;1999.90;999.90;;;;;;;;;;4955788;28;20309;-70
2024/03/16 16:30:40;;;;;;;1999.90;999.90;;;;;;;;;;4955726;29;20284;-70
2024/03/16 16:33:25;;;;;;;1999.90;999.90;;;;;;;;;;4955495;29;20807;-70
2024/03/16 16:36:09;;;;;;;1999.90;999.90;;;;;;;;;;4955795;29;20204;-69
2024/03/16 16:38:54;;;;;;;1999.90;999.90;;;;;;;;;;4955290;28;20235;-70
2024/03/16 16:41:38;;;;;;;1999.90;999.90;;;;;;;;;;4955623;29;20229;-70
2024/03/16 16:44:23;;;;;;;1999.90;999.90;;;;;;;;;;4954970;29;20416;-70
2024/03/16 16:47:07;;;;;;;1999.90;999.90;;;;;;;;;;4955449;29;20403;-70
2024/03/16 16:49:54;;;;;;;1999.90;999.90;;;;;;;;;;4954876;28;20240;-70
2024/03/16 16:52:38;;;;;;;1999.90;999.90;;;;;;;;;;4955500;29;20299;-70
2024/03/16 16:55:23;;;;;;;1999.90;999.90;;;;;;;;;;4955302;29;20275;-70
2024/03/16 16:58:08;;;;;;;1999.90;999.90;;;;;;;;;;4954924;28;20294;-70
2024/03/16 17:00:53;;;;;;;1999.90;999.90;;;;;;;;;;4955049;29;20313;-70
2024/03/16 17:03:37;;;;;;;1999.90;999.90;;;;;;;;;;4954853;29;20216;-70
2024/03/16 17:06:22;;;;;;;1999.90;999.90;;;;;;;;;;4955061;29;20223;-70
2024/03/16 17:09:07;;;;;;;1999.90;999.90;;;;;;;;;;4954812;28;20725;-70
2024/03/16 17:11:52;;;;;;;1999.90;999.90;;;;;;;;;;4954635;29;20208;-70
2024/03/16 17:14:36;;;;;;;1999.90;999.90;;;;;;;;;;4954895;29;20724;-70
2024/03/16 17:17:21;;;;;;;1999.90;999.90;;;;;;;;;;4954947;29;20297;-70
2024/03/16 17:20:06;;;;;;;1999.90;999.90;;;;;;;;;;4955556;29;20212;-70
2024/03/16 17:22:52;;;;;;;1999.90;999.90;;;;;;;;;;4955616;29;20288;-70
2024/03/16 17:25:36;;;;;;;1999.90;999.90;;;;;;;;;;4955230;29;20203;-70
2024/03/16 17:28:22;;;;;;;1999.90;999.90;;;;;;;;;;4954838;28;20227;-70
2024/03/16 17:31:06;;;;;;;1999.90;999.90;;;;;;;;;;4954838;29;20274;-70
2024/03/16 17:33:51;;;;;;;1999.90;999.90;;;;;;;;;;4954521;29;20205;-70
2024/03/16 17:36:35;;;;;;;1999.90;999.90;;;;;;;;;;4954076;28;20456;-70
2024/03/16 17:39:20;;;;;;;1999.90;999.90;;;;;;;;;;4954394;28;20233;-70
2024/03/16 17:42:06;;;;;;;1999.90;999.90;;;;;;;;;;4954393;29;20754;-70
2024/03/16 17:44:50;;;;;;;1999.90;999.90;;;;;;;;;;4954201;29;20209;-70
2024/03/16 17:47:35;;;;;;;1999.90;999.90;;;;;;;;;;4954355;28;20700;-70
2024/03/16 17:50:18;;;;;;;1999.90;999.90;;;;;;;;;;4954081;28;20272;-70
2024/03/16 17:53:03;;;;;;;1999.90;999.90;;;;;;;;;;4953595;29;20399;-70
2024/03/16 17:55:48;;;;;;;1999.90;999.90;;;;;;;;;;4953844;29;20225;-70
2024/03/16 17:58:32;;;;;;;1999.90;999.90;;;;;;;;;;4954155;28;20608;-70
2024/03/16 18:01:17;;;;;;;1999.90;999.90;;;;;;;;;;4953506;28;20247;-70
2024/03/16 18:04:01;;;;;;;1999.90;999.90;;;;;;;;;;4953953;29;20814;-70
2024/03/16 18:06:47;;;;;;;1999.90;999.90;;;;;;;;;;4954097;29;20273;-70
2024/03/16 18:09:32;;;;;;;1999.90;999.90;;;;;;;;;;4953710;28;20225;-70
2024/03/16 18:12:16;;;;;;;1999.90;999.90;;;;;;;;;;4953782;28;20280;-70
2024/03/16 18:15:02;;;;;;;1999.90;999.90;;;;;;;;;;4953752;29;20345;-70
2024/03/16 18:17:47;;;;;;;1999.90;999.90;;;;;;;;;;4953831;28;20212;-70
2024/03/16 18:20:31;;;;;;;1999.90;999.90;;;;;;;;;;4953991;29;20249;-70
2024/03/16 18:23:18;;;;;;;1999.90;999.90;;;;;;;;;;4953643;29;20205;-69
2024/03/16 18:26:03;;;;;;;1999.90;999.90;;;;;;;;;;4954921;29;20672;-70
2024/03/16 18:28:47;;;;;;;1999.90;999.90;;;;;;;;;;4953734;28;20437;-70
2024/03/16 18:31:32;;;;;;;1999.90;999.90;;;;;;;;;;4954744;29;20574;-70
2024/03/16 18:34:16;;;;;;;1999.90;999.90;;;;;;;;;;4954620;29;20798;-70
2024/03/16 18:37:01;;;;;;;1999.90;999.90;;;;;;;;;;4954725;29;20244;-70
2024/03/16 18:39:47;;;;;;;1999.90;999.90;;;;;;;;;;4954205;28;20231;-70
2024/03/16 18:42:32;;;;;;;1999.90;999.90;;;;;;;;;;4954461;29;20212;-70
2024/03/16 18:45:17;;;;;;;1999.90;999.90;;;;;;;;;;4953755;29;20420;-70
2024/03/16 18:48:02;;;;;;;1999.90;999.90;;;;;;;;;;4954371;28;20275;-70
2024/03/16 18:50:46;;;;;;;1999.90;999.90;;;;;;;;;;4954287;29;20272;-70
2024/03/16 18:53:31;;;;;;;1999.90;999.90;;;;;;;;;;4954444;29;20801;-69
2024/03/16 18:56:18;;;;;;;1999.90;999.90;;;;;;;;;;4954285;29;20204;-69
2024/03/16 18:59:03;;;;;;;1999.90;999.90;;;;;;;;;;4954294;28;20220;-69
2024/03/16 19:01:49;;;;;;;1999.90;999.90;;;;;;;;;;4954213;29;20250;-70
2024/03/16 19:04:33;;;;;;;1999.90;999.90;;;;;;;;;;4954037;29;20336;-70
2024/03/16 19:07:19;;;;;;;1999.90;999.90;;;;;;;;;;4954431;29;20204;-70
2024/03/16 19:10:05;;;;;;;1999.90;999.90;;;;;;;;;;4953878;29;20761;-70
2024/03/16 19:12:50;;;;;;;1999.90;999.90;;;;;;;;;;4953720;28;20200;-69
2024/03/16 19:15:35;;;;;;;1999.90;999.90;;;;;;;;;;4954032;29;20821;-70
2024/03/16 19:18:20;;;;;;;1999.90;999.90;;;;;;;;;;4953502;28;20913;-70
2024/03/16 19:21:05;;;;;;;1999.90;999.90;;;;;;;;;;4954005;28;20220;-69
2024/03/16 19:23:49;;;;;;;1999.90;999.90;;;;;;;;;;4954033;29;20219;-69
2024/03/16 19:26:36;;;;;;;1999.90;999.90;;;;;;;;;;4954055;29;20216;-70
2024/03/16 19:29:23;;;;;;;1999.90;999.90;;;;;;;;;;4957420;28;20220;-70
2024/03/16 19:32:08;;;;;;;1999.90;999.90;;;;;;;;;;4972656;28;20203;-71
2024/03/16 19:34:52;;;;;;;1999.90;999.90;;;;;;;;;;4973304;28;20943;-70
2024/03/16 19:37:37;;;;;;;1999.90;999.90;;;;;;;;;;4974991;28;20203;-71
2024/03/16 19:40:21;;;;;;;1999.90;999.90;;;;;;;;;;4969860;28;20327;-71
2024/03/16 19:43:06;;;;;;;1999.90;999.90;;;;;;;;;;4971932;28;20265;-70
2024/03/16 19:45:53;;;;;;;1999.90;999.90;;;;;;;;;;4975438;28;20206;-70
2024/03/16 19:48:39;;;;;;;1999.90;999.90;;;;;;;;;;4975266;28;20231;-71
2024/03/16 19:51:23;;;;;;;1999.90;999.90;;;;;;;;;;4976635;28;20211;-71
2024/03/16 19:54:08;;;;;;;1999.90;999.90;;;;;;;;;;4977088;28;20216;-70
2024/03/16 19:56:52;;;;;;;1999.90;999.90;;;;;;;;;;4993291;28;20215;-70
2024/03/16 19:59:37;;;;;;;1999.90;999.90;;;;;;;;;;4992215;28;20350;-71